createdAt,value
2017-08-25T00:00:34.572Z,5.40
2017-08-25T00:03:02.976Z,5.60
2017-08-25T00:05:31.096Z,4.97
2017-08-25T00:07:58.695Z,5.50
2017-08-25T00:10:26.265Z,4.57
2017-08-25T00:12:53.843Z,4.87
2017-08-25T00:15:21.547Z,3.90
2017-08-25T00:17:49.132Z,4.23
2017-08-25T00:20:16.792Z,4.40
2017-08-25T00:22:44.882Z,4.93
2017-08-25T00:25:12.479Z,5.10
2017-08-25T00:27:40.830Z,4.67
2017-08-25T00:30:08.430Z,4.40
2017-08-25T00:32:36.060Z,4.43
2017-08-25T00:35:04.339Z,5.00
2017-08-25T00:37:31.911Z,4.60
2017-08-25T00:39:59.516Z,4.60
2017-08-25T00:42:27.079Z,4.30
2017-08-25T00:44:54.873Z,4.23
2017-08-25T00:47:22.439Z,4.10
2017-08-25T00:49:50.740Z,3.97
2017-08-25T00:52:18.340Z,4.50
2017-08-25T00:54:45.980Z,4.77
2017-08-25T00:57:13.588Z,5.10
2017-08-25T00:59:41.168Z,4.90
2017-08-25T01:02:09.703Z,4.90
2017-08-25T01:04:37.420Z,4.00
2017-08-25T01:07:04.999Z,5.20
2017-08-25T01:09:32.692Z,4.40
2017-08-25T01:12:00.316Z,4.53
2017-08-25T01:14:28.792Z,4.93
2017-08-25T01:16:56.487Z,5.33
2017-08-25T01:19:24.118Z,5.00
2017-08-25T01:21:51.697Z,5.17
2017-08-25T01:24:19.279Z,4.47
2017-08-25T01:26:46.912Z,4.30
2017-08-25T01:29:14.550Z,4.20
2017-08-25T01:31:42.283Z,4.23
2017-08-25T01:34:09.912Z,4.33
2017-08-25T01:36:37.492Z,4.30
2017-08-25T01:39:05.247Z,4.13
2017-08-25T01:41:32.833Z,5.10
2017-08-25T01:44:00.484Z,4.37
2017-08-25T01:46:28.607Z,5.07
2017-08-25T01:48:56.216Z,3.70
2017-08-25T01:51:24.760Z,4.40
2017-08-25T01:53:52.340Z,4.63
2017-08-25T01:56:19.906Z,4.50
2017-08-25T01:58:47.508Z,4.53
2017-08-25T02:01:15.124Z,5.13
2017-08-25T02:03:42.721Z,4.97
2017-08-25T02:06:10.319Z,5.87
2017-08-25T02:08:37.874Z,5.83
2017-08-25T02:11:05.454Z,5.70
2017-08-25T02:13:33.022Z,4.63
2017-08-25T02:16:00.647Z,6.10
2017-08-25T02:18:28.211Z,5.60
2017-08-25T02:20:55.787Z,5.23
2017-08-25T02:23:23.375Z,5.70
2017-08-25T02:25:50.950Z,5.60
2017-08-25T02:28:18.559Z,5.00
2017-08-25T02:30:47.301Z,5.43
2017-08-25T02:33:15.781Z,5.37
2017-08-25T02:35:43.372Z,5.60
2017-08-25T02:38:10.956Z,5.20
2017-08-25T02:40:38.586Z,5.77
2017-08-25T02:43:06.816Z,5.67
2017-08-25T02:45:34.527Z,5.00
2017-08-25T02:48:02.132Z,4.90
2017-08-25T02:50:29.910Z,5.20
2017-08-25T02:52:57.536Z,5.10
2017-08-25T02:55:25.122Z,4.73
2017-08-25T02:57:53.628Z,4.80
2017-08-25T03:00:21.228Z,4.90
2017-08-25T03:02:48.828Z,4.70
2017-08-25T03:05:16.426Z,5.30
2017-08-25T03:07:43.990Z,5.13
2017-08-25T03:10:11.588Z,5.57
2017-08-25T03:12:39.168Z,4.70
2017-08-25T03:15:06.772Z,4.80
2017-08-25T03:17:34.623Z,4.70
2017-08-25T03:20:02.245Z,5.03
2017-08-25T03:22:29.844Z,5.10
2017-08-25T03:24:58.387Z,5.43
2017-08-25T03:27:26.079Z,5.17
2017-08-25T03:29:53.811Z,5.00
2017-08-25T03:32:21.398Z,5.37
2017-08-25T03:34:48.988Z,4.80
2017-08-25T03:37:16.638Z,5.10
2017-08-25T03:39:44.240Z,4.63
2017-08-25T03:42:11.826Z,5.97
2017-08-25T03:44:39.756Z,5.37
2017-08-25T03:47:07.339Z,5.10
2017-08-25T03:49:34.940Z,4.83
2017-08-25T03:52:02.524Z,4.70
2017-08-25T03:54:30.850Z,5.57
2017-08-25T03:56:58.503Z,5.07
2017-08-25T03:59:26.089Z,5.10
2017-08-25T04:01:53.661Z,5.03
2017-08-25T04:04:22.613Z,4.97
2017-08-25T04:06:51.688Z,5.93
2017-08-25T04:09:19.375Z,5.07
2017-08-25T04:11:47.027Z,5.53
2017-08-25T04:14:14.918Z,6.70
2017-08-25T04:16:42.523Z,6.90
2017-08-25T04:19:10.959Z,6.13
2017-08-25T04:21:38.572Z,6.90
2017-08-25T04:24:06.151Z,6.20
2017-08-25T04:26:33.767Z,6.20
2017-08-25T04:29:01.396Z,6.20
2017-08-25T04:31:28.987Z,6.73
2017-08-25T04:33:57.376Z,6.00
2017-08-25T04:36:24.971Z,6.57
2017-08-25T04:38:52.578Z,6.20
2017-08-25T04:41:20.184Z,6.33
2017-08-25T04:43:47.765Z,7.30
2017-08-25T04:46:15.407Z,5.97
2017-08-25T04:48:43.009Z,6.37
2017-08-25T04:51:11.306Z,6.43
2017-08-25T04:53:38.976Z,7.00
2017-08-25T04:56:06.563Z,6.10
2017-08-25T04:58:34.179Z,6.10
2017-08-25T05:01:01.789Z,6.27
2017-08-25T05:03:29.379Z,6.10
2017-08-25T05:05:57.870Z,6.00
2017-08-25T05:08:25.451Z,6.70
2017-08-25T05:10:53.096Z,6.00
2017-08-25T05:13:20.680Z,6.03
2017-08-25T05:15:48.336Z,6.77
2017-08-25T05:18:15.913Z,6.03
2017-08-25T05:20:43.584Z,6.27
2017-08-25T05:23:11.196Z,6.50
2017-08-25T05:25:39.577Z,6.00
2017-08-25T05:28:07.173Z,6.17
2017-08-25T05:30:34.735Z,5.70
2017-08-25T05:33:02.300Z,5.70
2017-08-25T05:35:30.038Z,6.23
2017-08-25T05:37:57.600Z,5.30
2017-08-25T05:40:25.199Z,6.10
2017-08-25T05:42:52.755Z,5.60
2017-08-25T05:45:20.315Z,6.00
2017-08-25T05:47:47.907Z,5.97
2017-08-25T05:50:16.448Z,6.13
2017-08-25T05:52:44.007Z,6.53
2017-08-25T05:55:11.636Z,6.03
2017-08-25T05:57:39.211Z,6.50
2017-08-25T06:00:06.851Z,5.30
2017-08-25T06:02:34.411Z,6.37
2017-08-25T06:05:02.006Z,6.17
2017-08-25T06:07:29.598Z,6.37
2017-08-25T06:09:57.169Z,6.23
2017-08-25T06:12:24.946Z,6.60
2017-08-25T06:14:52.523Z,6.57
2017-08-25T06:17:20.135Z,6.23
2017-08-25T06:19:47.694Z,6.80
2017-08-25T06:22:15.255Z,6.03
2017-08-25T06:24:42.842Z,6.47
2017-08-25T06:27:10.408Z,6.37
2017-08-25T06:29:37.998Z,6.53
2017-08-25T06:32:05.587Z,6.90
2017-08-25T06:34:33.177Z,6.57
2017-08-25T06:37:00.735Z,6.50
2017-08-25T06:39:28.347Z,7.70
2017-08-25T06:41:55.915Z,6.77
2017-08-25T06:44:23.467Z,7.10
2017-08-25T06:46:51.051Z,7.17
2017-08-25T06:49:18.652Z,7.57
2017-08-25T06:51:46.257Z,7.73
2017-08-25T06:54:13.816Z,7.00
2017-08-25T06:56:41.384Z,6.30
2017-08-25T06:59:08.976Z,7.37
2017-08-25T07:01:36.543Z,7.27
2017-08-25T07:04:04.155Z,7.00
2017-08-25T07:06:31.715Z,6.90
2017-08-25T07:08:59.315Z,6.57
2017-08-25T07:11:26.939Z,6.90
2017-08-25T07:13:54.530Z,7.07
2017-08-25T07:16:22.144Z,7.07
2017-08-25T07:18:49.741Z,6.97
2017-08-25T07:21:17.307Z,6.77
2017-08-25T07:23:44.911Z,7.10
2017-08-25T07:26:12.478Z,7.17
2017-08-25T07:28:40.047Z,6.67
2017-08-25T07:31:07.739Z,6.77
2017-08-25T07:33:35.311Z,6.47
2017-08-25T07:36:02.876Z,7.67
2017-08-25T07:38:30.465Z,6.43
2017-08-25T07:40:58.171Z,6.27
2017-08-25T07:43:25.767Z,7.50
2017-08-25T07:45:53.315Z,6.73
2017-08-25T07:48:20.899Z,6.70
2017-08-25T07:50:49.254Z,6.93
2017-08-25T07:53:16.820Z,6.70
2017-08-25T07:55:44.407Z,6.00
2017-08-25T07:58:12.015Z,5.53
2017-08-25T08:00:39.623Z,5.60
2017-08-25T08:03:07.311Z,5.60
2017-08-25T08:05:34.887Z,5.50
2017-08-25T08:08:02.487Z,5.83
2017-08-25T08:10:30.101Z,5.50
2017-08-25T08:12:57.667Z,5.00
2017-08-25T08:15:25.227Z,4.50
2017-08-25T08:17:52.815Z,5.13
2017-08-25T08:20:20.408Z,5.20
2017-08-25T08:22:47.986Z,5.20
2017-08-25T08:25:15.576Z,6.07
2017-08-25T08:27:43.187Z,6.20
2017-08-25T08:30:10.791Z,5.20
2017-08-25T08:32:38.586Z,5.00
2017-08-25T08:35:06.154Z,5.77
2017-08-25T08:37:33.751Z,5.57
2017-08-25T08:40:01.338Z,4.83
2017-08-25T08:42:28.939Z,4.73
2017-08-25T08:44:56.512Z,4.63
2017-08-25T08:47:24.075Z,4.50
2017-08-25T08:49:51.679Z,4.43
2017-08-25T08:52:19.243Z,4.43
2017-08-25T08:54:46.842Z,3.13
2017-08-25T08:57:14.419Z,3.57
2017-08-25T08:59:42.021Z,3.80
2017-08-25T09:02:09.618Z,4.13
2017-08-25T09:04:37.179Z,3.10
2017-08-25T09:07:05.532Z,3.83
2017-08-25T09:09:33.813Z,3.80
2017-08-25T09:12:01.553Z,4.20
2017-08-25T09:14:29.144Z,3.50
2017-08-25T09:16:56.899Z,3.30
2017-08-25T09:19:24.472Z,3.80
2017-08-25T09:24:40.511Z,3.60
2017-08-25T09:27:08.073Z,3.83
2017-08-25T09:29:35.636Z,3.80
2017-08-25T09:32:03.310Z,3.63
2017-08-25T09:34:30.871Z,3.90
2017-08-25T09:36:58.497Z,3.40
2017-08-25T09:39:26.055Z,3.67
2017-08-25T09:41:53.671Z,4.13
2017-08-25T09:44:21.232Z,3.90
2017-08-25T09:46:57.554Z,4.17
2017-08-25T09:49:25.115Z,4.50
2017-08-25T09:51:53.346Z,5.13
2017-08-25T09:54:20.963Z,4.67
2017-08-25T09:56:49.388Z,5.23
2017-08-25T09:59:16.969Z,4.70
2017-08-25T10:01:44.562Z,4.93
2017-08-25T10:04:12.896Z,4.13
2017-08-25T10:06:40.499Z,5.03
2017-08-25T10:09:08.063Z,4.70
2017-08-25T10:11:35.655Z,5.03
2017-08-25T10:14:03.226Z,4.60
2017-08-25T10:16:30.798Z,4.40
2017-08-25T10:21:48.921Z,4.10
2017-08-25T10:24:17.259Z,5.33
2017-08-25T10:26:44.865Z,5.20
2017-08-25T10:29:12.456Z,5.10
2017-08-25T10:31:40.061Z,5.10
2017-08-25T10:34:19.672Z,5.50
2017-08-25T10:36:59.129Z,4.93
2017-08-25T10:39:38.551Z,5.97
2017-08-25T10:42:18.059Z,5.83
2017-08-25T10:44:48.488Z,5.87
2017-08-25T10:47:16.075Z,5.60
2017-08-25T10:49:43.692Z,6.20
2017-08-25T10:52:11.263Z,5.67
2017-08-25T10:54:38.835Z,5.60
2017-08-25T10:57:06.422Z,5.77
2017-08-25T10:59:33.987Z,6.47
2017-08-25T11:02:01.580Z,6.03
2017-08-25T11:04:29.139Z,5.80
2017-08-25T11:06:56.732Z,5.70
2017-08-25T11:09:24.336Z,6.47
2017-08-25T11:11:51.924Z,6.23
2017-08-25T11:14:19.535Z,6.17
2017-08-25T11:16:47.100Z,6.70
2017-08-25T11:19:14.695Z,6.20
2017-08-25T11:21:42.247Z,6.10
2017-08-25T11:24:09.808Z,6.83
2017-08-25T11:26:37.407Z,6.97
2017-08-25T11:29:05.008Z,6.17
2017-08-25T11:31:32.716Z,6.70
2017-08-25T11:34:00.279Z,6.33
2017-08-25T11:36:27.867Z,6.70
2017-08-25T11:38:55.476Z,6.30
2017-08-25T11:41:23.052Z,6.57
2017-08-25T11:43:50.650Z,6.40
2017-08-25T11:46:18.211Z,6.90
2017-08-25T11:48:45.816Z,5.67
2017-08-25T11:51:13.608Z,6.87
2017-08-25T11:53:41.163Z,6.40
2017-08-25T11:56:08.775Z,7.90
2017-08-25T11:58:36.346Z,7.80
2017-08-25T12:01:03.915Z,7.33
2017-08-25T12:03:31.595Z,6.73
2017-08-25T12:05:59.163Z,7.00
2017-08-25T12:08:26.758Z,7.60
2017-08-25T12:10:54.472Z,7.13
2017-08-25T12:13:22.131Z,7.03
2017-08-25T12:15:50.500Z,6.60
2017-08-25T12:18:18.061Z,7.80
2017-08-25T12:20:45.630Z,7.47
2017-08-25T12:23:13.220Z,7.10
2017-08-25T12:25:40.787Z,7.90
2017-08-25T12:28:08.391Z,6.87
2017-08-25T12:30:35.959Z,7.17
2017-08-25T12:33:03.536Z,6.30
2017-08-25T12:35:31.168Z,7.97
2017-08-25T12:37:58.743Z,7.30
2017-08-25T12:40:26.321Z,7.30
2017-08-25T12:42:53.999Z,7.40
2017-08-25T12:45:21.561Z,7.50
2017-08-25T12:47:49.155Z,7.30
2017-08-25T12:50:16.719Z,7.03
2017-08-25T12:52:44.276Z,7.30
2017-08-25T12:55:11.871Z,8.10
2017-08-25T12:57:39.496Z,7.70
2017-08-25T13:00:07.285Z,7.30
2017-08-25T13:02:34.939Z,8.23
2017-08-25T13:05:02.625Z,7.60
2017-08-25T13:07:30.412Z,8.67
2017-08-25T13:09:57.971Z,8.10
2017-08-25T13:12:25.635Z,8.17
2017-08-25T13:14:53.242Z,6.90
2017-08-25T13:17:20.815Z,7.37
2017-08-25T13:19:48.382Z,7.73
2017-08-25T13:22:15.979Z,7.43
2017-08-25T13:24:43.552Z,8.60
2017-08-25T13:27:11.154Z,7.13
2017-08-25T13:29:38.759Z,7.63
2017-08-25T13:32:06.395Z,7.20
2017-08-25T13:34:34.000Z,7.47
2017-08-25T13:37:02.089Z,7.40
2017-08-25T13:39:29.699Z,7.30
2017-08-25T13:41:58.184Z,7.30
2017-08-25T13:44:25.816Z,7.60
2017-08-25T13:46:53.413Z,7.03
2017-08-25T13:49:21.210Z,7.20
2017-08-25T13:51:48.836Z,7.47
2017-08-25T13:54:16.701Z,7.23
2017-08-25T13:56:44.310Z,7.53
2017-08-25T13:59:11.939Z,6.87
2017-08-25T14:01:39.499Z,8.00
2017-08-25T14:04:07.069Z,7.20
2017-08-25T14:06:34.676Z,7.97
2017-08-25T14:09:02.231Z,7.40
2017-08-25T14:11:29.835Z,7.57
2017-08-25T14:13:57.396Z,7.07
2017-08-25T14:16:24.960Z,6.70
2017-08-25T14:18:52.555Z,7.03
2017-08-25T14:21:20.120Z,7.43
2017-08-25T14:23:47.710Z,6.87
2017-08-25T14:26:15.283Z,6.50
2017-08-25T14:28:42.868Z,6.60
2017-08-25T14:31:10.443Z,7.30
2017-08-25T14:33:38.039Z,6.10
2017-08-25T14:36:05.641Z,6.60
2017-08-25T14:38:33.992Z,6.90
2017-08-25T14:41:01.770Z,7.17
2017-08-25T14:43:29.345Z,7.07
2017-08-25T14:45:56.913Z,6.03
2017-08-25T14:48:24.511Z,6.67
2017-08-25T14:50:52.159Z,7.20
2017-08-25T14:53:19.733Z,7.10
2017-08-25T14:55:47.358Z,6.50
2017-08-25T14:58:14.976Z,7.67
2017-08-25T15:00:42.545Z,6.70
2017-08-25T15:03:10.111Z,8.20
2017-08-25T15:05:37.706Z,6.37
2017-08-25T15:08:05.300Z,6.90
2017-08-25T15:10:32.923Z,6.60
2017-08-25T15:13:00.492Z,7.07
2017-08-25T15:15:28.058Z,6.20
2017-08-25T15:17:55.670Z,7.17
2017-08-25T15:20:23.243Z,6.50
2017-08-25T15:22:50.809Z,7.70
2017-08-25T15:25:18.403Z,7.10
2017-08-25T15:27:45.996Z,6.27
2017-08-25T15:30:13.564Z,6.97
2017-08-25T15:32:41.139Z,7.07
2017-08-25T15:35:08.816Z,6.80
2017-08-25T15:37:36.391Z,6.93
2017-08-25T15:40:04.005Z,7.50
2017-08-25T15:42:31.571Z,6.40
2017-08-25T15:44:59.167Z,7.57
2017-08-25T15:47:27.299Z,7.57
2017-08-25T15:49:55.049Z,7.53
2017-08-25T15:52:22.666Z,7.83
2017-08-25T15:54:50.242Z,7.10
2017-08-25T15:57:17.858Z,7.00
2017-08-25T15:59:45.441Z,6.43
2017-08-25T16:02:13.022Z,7.07
2017-08-25T16:04:40.648Z,6.80
2017-08-25T16:07:08.296Z,6.50
2017-08-25T16:09:35.955Z,7.00
2017-08-25T16:12:03.536Z,6.37
2017-08-25T16:14:34.019Z,7.57
2017-08-25T16:17:01.746Z,7.53
2017-08-25T16:19:29.313Z,7.20
2017-08-25T16:21:56.912Z,7.00
2017-08-25T16:24:24.495Z,7.60
2017-08-25T16:26:52.064Z,7.57
2017-08-25T16:29:19.646Z,6.50
2017-08-25T16:31:47.228Z,6.97
2017-08-25T16:34:14.835Z,8.00
2017-08-25T16:36:42.397Z,7.40
2017-08-25T16:39:09.956Z,6.90
2017-08-25T16:41:37.563Z,7.10
2017-08-25T16:44:05.145Z,7.80
2017-08-25T16:46:32.722Z,8.20
2017-08-25T16:49:00.327Z,8.60
2017-08-25T16:51:27.907Z,8.53
2017-08-25T16:53:55.561Z,8.47
2017-08-25T16:56:23.143Z,8.50
2017-08-25T16:58:50.773Z,8.00
2017-08-25T17:01:18.337Z,7.90
2017-08-25T17:03:45.935Z,8.47
2017-08-25T17:06:13.550Z,7.90
2017-08-25T17:08:41.116Z,7.90
2017-08-25T17:11:08.683Z,8.40
2017-08-25T17:13:36.302Z,7.70
2017-08-25T17:16:03.867Z,8.20
2017-08-25T17:18:31.467Z,7.80
2017-08-25T17:20:59.037Z,8.00
2017-08-25T17:23:26.653Z,9.07
2017-08-25T17:25:55.018Z,8.30
2017-08-25T17:28:22.599Z,8.70
2017-08-25T17:30:50.203Z,8.40
2017-08-25T17:33:17.773Z,8.43
2017-08-25T17:35:45.392Z,8.63
2017-08-25T17:38:12.971Z,8.10
2017-08-25T17:40:40.586Z,8.23
2017-08-25T17:43:08.185Z,9.07
2017-08-25T17:45:35.752Z,8.60
2017-08-25T17:48:03.318Z,8.87
2017-08-25T17:50:30.912Z,8.60
2017-08-25T17:52:58.511Z,7.97
2017-08-25T17:55:26.130Z,8.73
2017-08-25T17:57:53.705Z,8.60
2017-08-25T18:00:21.275Z,9.30
2017-08-25T18:02:48.991Z,9.17
2017-08-25T18:05:16.624Z,9.47
2017-08-25T18:07:44.200Z,9.57
2017-08-25T18:10:11.819Z,9.67
2017-08-25T18:12:39.404Z,9.93
2017-08-25T18:15:06.977Z,10.27
2017-08-25T18:17:34.578Z,8.87
2017-08-25T18:20:02.145Z,9.27
2017-08-25T18:22:29.750Z,10.00
2017-08-25T18:24:57.324Z,12.87
2017-08-25T18:27:24.956Z,8.80
2017-08-25T18:29:52.532Z,10.07
2017-08-25T18:32:20.114Z,9.03
2017-08-25T18:34:47.714Z,8.80
2017-08-25T18:37:15.287Z,9.30
2017-08-25T18:39:42.903Z,10.20
2017-08-25T18:42:10.501Z,11.10
2017-08-25T18:44:38.100Z,10.17
2017-08-25T18:47:05.725Z,11.20
2017-08-25T18:49:33.288Z,10.30
2017-08-25T18:52:00.931Z,10.17
2017-08-25T18:54:28.556Z,10.17
2017-08-25T18:56:56.128Z,11.27
2017-08-25T18:59:23.731Z,12.10
2017-08-25T19:01:51.293Z,11.60
2017-08-25T19:04:19.024Z,10.83
2017-08-25T19:06:46.631Z,16.93
2017-08-25T19:09:14.216Z,12.13
2017-08-25T19:11:41.797Z,12.47
2017-08-25T19:14:10.675Z,11.97
2017-08-25T19:16:38.243Z,11.43
2017-08-25T19:19:05.846Z,11.67
2017-08-25T19:21:33.440Z,11.60
2017-08-25T19:24:01.043Z,11.70
2017-08-25T19:26:28.659Z,12.37
2017-08-25T19:28:56.247Z,11.00
2017-08-25T19:31:23.875Z,11.23
2017-08-25T19:33:51.456Z,12.20
2017-08-25T19:36:19.107Z,10.63
2017-08-25T19:38:46.667Z,11.70
2017-08-25T19:41:14.264Z,12.43
2017-08-25T19:43:41.869Z,12.17
2017-08-25T19:46:09.443Z,12.17
2017-08-25T19:48:37.072Z,12.50
2017-08-25T19:51:04.640Z,11.63
2017-08-25T19:53:32.276Z,11.50
2017-08-25T19:55:59.876Z,12.00
2017-08-25T19:58:27.436Z,12.00
2017-08-25T20:00:55.047Z,12.10
2017-08-25T20:03:22.616Z,12.97
2017-08-25T20:05:50.210Z,12.33
2017-08-25T20:08:17.799Z,11.20
2017-08-25T20:10:45.367Z,13.00
2017-08-25T20:13:13.083Z,12.10
2017-08-25T20:15:40.663Z,13.73
2017-08-25T20:18:08.244Z,13.30
2017-08-25T20:20:35.863Z,13.23
2017-08-25T20:23:03.432Z,14.40
2017-08-25T20:25:31.057Z,14.27
2017-08-25T20:27:58.628Z,12.40
2017-08-25T20:30:26.244Z,14.30
2017-08-25T20:32:53.882Z,13.57
2017-08-25T20:35:21.460Z,13.90
2017-08-25T20:37:49.063Z,13.00
2017-08-25T20:40:16.684Z,13.33
2017-08-25T20:42:44.260Z,13.47
2017-08-25T20:45:11.879Z,13.60
2017-08-25T20:47:39.464Z,13.90
2017-08-25T20:50:07.036Z,14.00
2017-08-25T20:52:35.480Z,14.43
2017-08-25T20:55:03.059Z,15.13
2017-08-25T20:57:30.645Z,17.03
2017-08-25T20:59:58.255Z,14.47
2017-08-25T21:02:25.870Z,13.80
2017-08-25T21:04:53.508Z,12.80
2017-08-25T21:07:21.079Z,14.20
2017-08-25T21:09:48.680Z,14.13
2017-08-25T21:12:16.293Z,13.83
2017-08-25T21:14:44.664Z,14.20
2017-08-25T21:17:12.351Z,13.57
2017-08-25T21:19:39.939Z,13.40
2017-08-25T21:22:07.511Z,12.53
2017-08-25T21:24:35.124Z,12.83
2017-08-25T21:27:03.014Z,11.83
2017-08-25T21:29:30.594Z,12.70
2017-08-25T21:31:58.228Z,13.27
2017-08-25T21:34:25.830Z,13.23
2017-08-25T21:36:53.407Z,12.40
2017-08-25T21:39:21.039Z,12.97
2017-08-25T21:41:48.607Z,12.90
2017-08-25T21:44:16.190Z,12.30
2017-08-25T21:46:43.810Z,14.30
2017-08-25T21:49:11.504Z,12.70
2017-08-25T21:51:39.075Z,13.90
2017-08-25T21:54:06.667Z,13.20
2017-08-25T21:56:34.248Z,12.83
2017-08-25T21:59:01.858Z,13.00
2017-08-25T22:01:29.432Z,13.83
2017-08-25T22:03:57.060Z,13.10
2017-08-25T22:06:24.679Z,13.67
2017-08-25T22:08:52.246Z,14.33
2017-08-25T22:11:19.919Z,13.53
2017-08-25T22:13:47.499Z,13.47
2017-08-25T22:16:15.062Z,13.60
2017-08-25T22:18:42.651Z,12.77
2017-08-25T22:21:10.219Z,13.60
2017-08-25T22:23:37.807Z,13.00
2017-08-25T22:26:05.542Z,12.93
2017-08-25T22:28:33.119Z,13.20
2017-08-25T22:31:00.951Z,12.70
2017-08-25T22:33:28.524Z,14.00
2017-08-25T22:35:56.107Z,13.87
2017-08-25T22:38:23.711Z,12.90
2017-08-25T22:40:51.280Z,14.17
2017-08-25T22:43:18.880Z,14.50
2017-08-25T22:45:46.467Z,13.43
2017-08-25T22:48:14.057Z,13.00
2017-08-25T22:50:41.661Z,12.83
2017-08-25T22:53:09.234Z,12.47
2017-08-25T22:55:36.806Z,13.90
2017-08-25T22:58:05.427Z,14.20
2017-08-25T23:00:33.010Z,15.00
2017-08-25T23:03:00.602Z,13.93
2017-08-25T23:05:28.178Z,13.30
2017-08-25T23:07:55.791Z,13.80
2017-08-25T23:10:23.504Z,14.37
2017-08-25T23:12:51.087Z,12.63
2017-08-25T23:15:18.686Z,14.07
2017-08-25T23:17:46.260Z,12.80
2017-08-25T23:20:13.826Z,12.20
2017-08-25T23:22:41.426Z,14.23
2017-08-25T23:25:08.996Z,13.17
2017-08-25T23:27:36.603Z,14.37
2017-08-25T23:30:04.190Z,14.87
2017-08-25T23:32:31.763Z,14.30
2017-08-25T23:34:59.363Z,13.10
2017-08-25T23:37:26.927Z,12.73
2017-08-25T23:39:54.575Z,13.50
2017-08-25T23:42:22.147Z,14.00
2017-08-25T23:44:49.715Z,13.17
2017-08-25T23:47:17.319Z,14.17
2017-08-25T23:49:44.911Z,13.50
2017-08-25T23:52:12.498Z,14.10
2017-08-25T23:54:40.064Z,13.43
2017-08-25T23:57:07.683Z,12.60
2017-08-25T23:59:35.260Z,12.80
